CYBB/YBB METAR and TAF weather

Enter ICAO airport designator
Station Type Date Time Source
CYBB METAR 2018/07/18 23:00 UTC NOAA

CYBB 182300Z 14010KT 15SM BKN100 21/04 A2986 RMK AC5 21.3/14.2/0.0/LAST STFD OBS/NXT/191200Z SLP114 DENSITY ALT 800FT


Station Type Date Time Source
CYBB Decoded METAR 2018/07/18 23:00 UTC NOAA

Pelly Bay Airport, Canada (CYBB) 68-32N 089-49W
Jul 18, 2018 - 07:00 PM EDT / 2018.07.18 2300 UTC
Wind: from the SE (140 degrees) at 12 MPH (10 KT):0
Visibility: 15 mile(s):0
Sky conditions: mostly cloudy
Temperature: 69 F (21 C)
Dew Point: 39 F (4 C)
Relative Humidity: 32%
Pressure (altimeter): 29.86 in. Hg (1011 hPa)
ob: CYBB 182300Z 14010KT 15SM BKN100 21/04 A2986 RMK AC5 21.3/14.2/0.0/LAST STFD OBS/NXT/191200Z SLP114 DENSITY ALT 800FT
cycle: 23

Station Type Date Time Source
CYBB TAF 2018/07/18 19:00 UTC NOAA

TAF CYBB 181838Z 1819/1823 VRB03KT P6SM BKN100
TEMPO 1819/1823 SCT100
RMK NXT FCST WILL BE ISSUED AT 191345Z


Example: see airport list